sensor_id;sensor_type;location;lat;lon;timestamp;P1;durP1;ratioP1;P2;durP2;ratioP2
15968;SDS011;8085;53.472;9.794;2024-03-23T00:54:37;11.98;;;1.92;;
15968;SDS011;8085;53.472;9.794;2024-03-23T00:57:04;11.73;;;1.75;;
15968;SDS011;8085;53.472;9.794;2024-03-23T00:59:29;14.65;;;1.70;;
15968;SDS011;8085;53.472;9.794;2024-03-23T01:01:56;12.23;;;2.20;;
15968;SDS011;8085;53.472;9.794;2024-03-23T01:04:22;13.40;;;1.85;;
15968;SDS011;8085;53.472;9.794;2024-03-23T01:06:49;7.85;;;1.42;;
15968;SDS011;8085;53.472;9.794;2024-03-23T01:09:15;19.77;;;2.60;;
15968;SDS011;8085;53.472;9.794;2024-03-23T01:11:43;13.63;;;1.75;;
15968;SDS011;8085;53.472;9.794;2024-03-23T01:14:08;15.57;;;2.30;;
15968;SDS011;8085;53.472;9.794;2024-03-23T01:16:35;14.70;;;2.00;;
15968;SDS011;8085;53.472;9.794;2024-03-23T01:19:01;10.75;;;1.85;;
15968;SDS011;8085;53.472;9.794;2024-03-23T01:21:28;13.98;;;2.42;;
15968;SDS011;8085;53.472;9.794;2024-03-23T01:23:54;11.43;;;2.00;;
15968;SDS011;8085;53.472;9.794;2024-03-23T01:26:21;15.55;;;2.13;;
15968;SDS011;8085;53.472;9.794;2024-03-23T01:28:48;12.18;;;2.00;;
15968;SDS011;8085;53.472;9.794;2024-03-23T01:31:15;11.50;;;2.25;;
15968;SDS011;8085;53.472;9.794;2024-03-23T01:33:41;16.40;;;1.90;;
15968;SDS011;8085;53.472;9.794;2024-03-23T01:36:08;14.88;;;1.83;;
15968;SDS011;8085;53.472;9.794;2024-03-23T01:38:34;17.02;;;2.20;;
15968;SDS011;8085;53.472;9.794;2024-03-23T01:41:01;14.30;;;2.20;;
15968;SDS011;8085;53.472;9.794;2024-03-23T01:43:27;13.90;;;1.90;;
15968;SDS011;8085;53.472;9.794;2024-03-23T01:45:55;12.60;;;1.67;;
15968;SDS011;8085;53.472;9.794;2024-03-23T01:48:21;20.27;;;2.40;;
15968;SDS011;8085;53.472;9.794;2024-03-23T01:50:48;14.80;;;2.67;;
15968;SDS011;8085;53.472;9.794;2024-03-23T01:53:14;13.52;;;1.95;;
15968;SDS011;8085;53.472;9.794;2024-03-23T01:55:42;23.20;;;2.08;;
15968;SDS011;8085;53.472;9.794;2024-03-23T01:58:08;11.80;;;2.05;;
15968;SDS011;8085;53.472;9.794;2024-03-23T02:00:35;15.15;;;2.20;;
15968;SDS011;8085;53.472;9.794;2024-03-23T02:03:02;15.70;;;1.90;;
15968;SDS011;8085;53.472;9.794;2024-03-23T02:05:48;11.15;;;1.63;;
15968;SDS011;8085;53.472;9.794;2024-03-23T02:08:14;17.80;;;2.03;;
15968;SDS011;8085;53.472;9.794;2024-03-23T02:10:40;12.90;;;2.40;;
15968;SDS011;8085;53.472;9.794;2024-03-23T02:13:07;17.42;;;2.05;;
15968;SDS011;8085;53.472;9.794;2024-03-23T02:15:34;11.32;;;2.20;;
15968;SDS011;8085;53.472;9.794;2024-03-23T02:18:00;9.77;;;1.83;;
15968;SDS011;8085;53.472;9.794;2024-03-23T02:20:28;10.98;;;2.10;;
15968;SDS011;8085;53.472;9.794;2024-03-23T02:22:55;19.17;;;3.13;;
15968;SDS011;8085;53.472;9.794;2024-03-23T02:25:22;9.45;;;1.70;;
15968;SDS011;8085;53.472;9.794;2024-03-23T02:27:47;20.25;;;2.45;;
15968;SDS011;8085;53.472;9.794;2024-03-23T02:30:14;14.93;;;1.92;;
15968;SDS011;8085;53.472;9.794;2024-03-23T02:32:40;13.70;;;2.53;;
15968;SDS011;8085;53.472;9.794;2024-03-23T02:35:07;12.32;;;2.25;;
15968;SDS011;8085;53.472;9.794;2024-03-23T02:37:33;14.45;;;2.17;;
15968;SDS011;8085;53.472;9.794;2024-03-23T02:40:01;22.58;;;2.60;;
15968;SDS011;8085;53.472;9.794;2024-03-23T02:42:27;14.23;;;2.50;;
15968;SDS011;8085;53.472;9.794;2024-03-23T02:44:53;11.07;;;2.22;;
15968;SDS011;8085;53.472;9.794;2024-03-23T02:47:19;19.40;;;2.33;;
15968;SDS011;8085;53.472;9.794;2024-03-23T02:49:46;9.68;;;1.60;;
15968;SDS011;8085;53.472;9.794;2024-03-23T02:52:12;17.20;;;2.63;;
15968;SDS011;8085;53.472;9.794;2024-03-23T02:54:38;13.90;;;2.17;;
15968;SDS011;8085;53.472;9.794;2024-03-23T02:57:05;12.60;;;1.63;;
15968;SDS011;8085;53.472;9.794;2024-03-23T02:59:32;13.30;;;2.08;;
15968;SDS011;8085;53.472;9.794;2024-03-23T03:01:58;11.00;;;1.90;;
15968;SDS011;8085;53.472;9.794;2024-03-23T03:04:26;13.80;;;1.88;;
15968;SDS011;8085;53.472;9.794;2024-03-23T03:06:52;24.02;;;2.60;;
15968;SDS011;8085;53.472;9.794;2024-03-23T03:11:46;14.93;;;2.45;;
15968;SDS011;8085;53.472;9.794;2024-03-23T03:14:14;15.48;;;2.03;;
15968;SDS011;8085;53.472;9.794;2024-03-23T03:16:40;16.08;;;2.30;;
15968;SDS011;8085;53.472;9.794;2024-03-23T03:19:07;13.75;;;1.73;;
15968;SDS011;8085;53.472;9.794;2024-03-23T03:21:32;17.83;;;2.05;;
15968;SDS011;8085;53.472;9.794;2024-03-23T03:23:59;15.93;;;2.45;;
15968;SDS011;8085;53.472;9.794;2024-03-23T03:26:25;15.30;;;2.92;;
15968;SDS011;8085;53.472;9.794;2024-03-23T03:28:52;12.50;;;2.70;;
15968;SDS011;8085;53.472;9.794;2024-03-23T03:31:19;14.48;;;2.10;;
15968;SDS011;8085;53.472;9.794;2024-03-23T03:33:46;11.15;;;2.17;;
15968;SDS011;8085;53.472;9.794;2024-03-23T03:36:11;19.88;;;2.85;;
15968;SDS011;8085;53.472;9.794;2024-03-23T03:38:38;15.88;;;2.67;;
15968;SDS011;8085;53.472;9.794;2024-03-23T03:41:04;16.30;;;2.03;;
15968;SDS011;8085;53.472;9.794;2024-03-23T03:43:32;16.95;;;2.33;;
15968;SDS011;8085;53.472;9.794;2024-03-23T03:45:59;13.52;;;1.88;;
15968;SDS011;8085;53.472;9.794;2024-03-23T03:48:28;11.18;;;1.83;;
15968;SDS011;8085;53.472;9.794;2024-03-23T03:50:54;14.73;;;2.00;;
15968;SDS011;8085;53.472;9.794;2024-03-23T03:53:20;17.23;;;2.42;;
15968;SDS011;8085;53.472;9.794;2024-03-23T03:55:46;18.13;;;2.92;;
15968;SDS011;8085;53.472;9.794;2024-03-23T03:58:13;17.70;;;2.25;;
15968;SDS011;8085;53.472;9.794;2024-03-23T04:00:39;14.20;;;2.47;;
15968;SDS011;8085;53.472;9.794;2024-03-23T04:03:05;16.42;;;1.95;;
15968;SDS011;8085;53.472;9.794;2024-03-23T04:05:33;8.43;;;1.63;;
15968;SDS011;8085;53.472;9.794;2024-03-23T04:07:59;18.10;;;2.47;;
15968;SDS011;8085;53.472;9.794;2024-03-23T04:10:25;14.57;;;1.92;;
15968;SDS011;8085;53.472;9.794;2024-03-23T04:12:52;11.50;;;1.83;;
15968;SDS011;8085;53.472;9.794;2024-03-23T04:15:19;13.60;;;1.73;;
15968;SDS011;8085;53.472;9.794;2024-03-23T04:17:45;16.23;;;2.47;;
15968;SDS011;8085;53.472;9.794;2024-03-23T04:20:11;9.32;;;1.70;;
15968;SDS011;8085;53.472;9.794;2024-03-23T04:22:43;14.30;;;2.78;;
15968;SDS011;8085;53.472;9.794;2024-03-23T04:25:09;8.77;;;1.70;;
15968;SDS011;8085;53.472;9.794;2024-03-23T04:27:35;15.23;;;2.33;;
15968;SDS011;8085;53.472;9.794;2024-03-23T04:30:02;16.38;;;2.47;;
15968;SDS011;8085;53.472;9.794;2024-03-23T04:32:34;10.50;;;2.03;;
15968;SDS011;8085;53.472;9.794;2024-03-23T04:35:00;11.20;;;1.90;;
15968;SDS011;8085;53.472;9.794;2024-03-23T04:37:27;13.45;;;2.10;;
15968;SDS011;8085;53.472;9.794;2024-03-23T04:39:56;18.75;;;2.35;;
15968;SDS011;8085;53.472;9.794;2024-03-23T04:42:22;11.68;;;2.03;;
15968;SDS011;8085;53.472;9.794;2024-03-23T04:44:49;18.08;;;2.72;;
15968;SDS011;8085;53.472;9.794;2024-03-23T04:47:16;10.23;;;1.58;;
15968;SDS011;8085;53.472;9.794;2024-03-23T04:49:43;22.40;;;2.05;;
15968;SDS011;8085;53.472;9.794;2024-03-23T04:52:10;15.07;;;1.85;;
15968;SDS011;8085;53.472;9.794;2024-03-23T04:54:37;9.13;;;1.60;;
15968;SDS011;8085;53.472;9.794;2024-03-23T04:57:06;12.70;;;1.67;;
15968;SDS011;8085;53.472;9.794;2024-03-23T04:59:32;12.73;;;2.05;;
15968;SDS011;8085;53.472;9.794;2024-03-23T05:01:59;19.13;;;2.40;;
15968;SDS011;8085;53.472;9.794;2024-03-23T05:04:26;13.73;;;2.28;;
15968;SDS011;8085;53.472;9.794;2024-03-23T05:06:52;12.07;;;1.85;;
15968;SDS011;8085;53.472;9.794;2024-03-23T05:09:18;16.25;;;2.20;;
15968;SDS011;8085;53.472;9.794;2024-03-23T05:11:45;11.68;;;2.00;;
15968;SDS011;8085;53.472;9.794;2024-03-23T05:14:13;17.02;;;1.98;;
15968;SDS011;8085;53.472;9.794;2024-03-23T05:16:39;16.73;;;2.25;;
15968;SDS011;8085;53.472;9.794;2024-03-23T05:19:06;11.15;;;1.73;;
15968;SDS011;8085;53.472;9.794;2024-03-23T05:21:31;12.30;;;1.70;;
15968;SDS011;8085;53.472;9.794;2024-03-23T05:23:58;16.92;;;2.20;;
15968;SDS011;8085;53.472;9.794;2024-03-23T05:26:24;12.40;;;2.00;;
15968;SDS011;8085;53.472;9.794;2024-03-23T05:28:51;7.38;;;1.60;;
15968;SDS011;8085;53.472;9.794;2024-03-23T05:31:23;19.42;;;2.63;;
15968;SDS011;8085;53.472;9.794;2024-03-23T05:33:50;10.75;;;1.70;;
15968;SDS011;8085;53.472;9.794;2024-03-23T05:36:16;13.23;;;1.85;;
15968;SDS011;8085;53.472;9.794;2024-03-23T05:38:43;14.80;;;2.22;;
15968;SDS011;8085;53.472;9.794;2024-03-23T05:41:09;14.07;;;1.85;;
15968;SDS011;8085;53.472;9.794;2024-03-23T05:43:36;12.50;;;2.13;;
15968;SDS011;8085;53.472;9.794;2024-03-23T05:46:02;11.60;;;2.08;;
15968;SDS011;8085;53.472;9.794;2024-03-23T05:48:30;11.23;;;1.90;;
15968;SDS011;8085;53.472;9.794;2024-03-23T05:50:57;14.18;;;2.17;;
15968;SDS011;8085;53.472;9.794;2024-03-23T05:53:24;9.10;;;1.50;;
15968;SDS011;8085;53.472;9.794;2024-03-23T05:55:50;12.73;;;2.50;;
15968;SDS011;8085;53.472;9.794;2024-03-23T05:58:19;11.13;;;1.95;;
15968;SDS011;8085;53.472;9.794;2024-03-23T06:00:45;15.05;;;2.00;;
15968;SDS011;8085;53.472;9.794;2024-03-23T06:03:12;6.60;;;1.27;;
15968;SDS011;8085;53.472;9.794;2024-03-23T06:05:39;14.68;;;2.60;;
15968;SDS011;8085;53.472;9.794;2024-03-23T06:08:07;22.35;;;2.40;;
15968;SDS011;8085;53.472;9.794;2024-03-23T06:10:34;7.70;;;1.58;;
15968;SDS011;8085;53.472;9.794;2024-03-23T06:13:01;8.35;;;1.58;;
15968;SDS011;8085;53.472;9.794;2024-03-23T06:15:28;10.27;;;1.92;;
15968;SDS011;8085;53.472;9.794;2024-03-23T06:17:55;8.60;;;1.67;;
15968;SDS011;8085;53.472;9.794;2024-03-23T06:20:22;20.60;;;2.22;;
15968;SDS011;8085;53.472;9.794;2024-03-23T06:22:49;13.63;;;2.28;;
15968;SDS011;8085;53.472;9.794;2024-03-23T06:25:17;9.73;;;1.58;;
15968;SDS011;8085;53.472;9.794;2024-03-23T06:27:43;8.65;;;1.67;;
15968;SDS011;8085;53.472;9.794;2024-03-23T06:30:10;11.45;;;1.88;;
15968;SDS011;8085;53.472;9.794;2024-03-23T06:32:37;17.00;;;2.67;;
15968;SDS011;8085;53.472;9.794;2024-03-23T06:35:04;12.68;;;2.00;;
15968;SDS011;8085;53.472;9.794;2024-03-23T06:37:33;14.18;;;2.33;;
15968;SDS011;8085;53.472;9.794;2024-03-23T06:40:01;12.93;;;2.30;;
15968;SDS011;8085;53.472;9.794;2024-03-23T06:42:29;11.55;;;1.50;;
15968;SDS011;8085;53.472;9.794;2024-03-23T06:44:56;22.98;;;2.55;;
15968;SDS011;8085;53.472;9.794;2024-03-23T06:47:22;21.17;;;2.28;;
15968;SDS011;8085;53.472;9.794;2024-03-23T06:49:49;12.50;;;2.20;;
15968;SDS011;8085;53.472;9.794;2024-03-23T06:52:14;21.02;;;2.50;;
15968;SDS011;8085;53.472;9.794;2024-03-23T06:54:41;14.13;;;2.83;;
15968;SDS011;8085;53.472;9.794;2024-03-23T06:57:08;13.13;;;2.00;;
15968;SDS011;8085;53.472;9.794;2024-03-23T06:59:35;11.63;;;3.00;;
15968;SDS011;8085;53.472;9.794;2024-03-23T07:02:01;16.05;;;2.72;;
15968;SDS011;8085;53.472;9.794;2024-03-23T07:04:29;16.45;;;2.17;;
15968;SDS011;8085;53.472;9.794;2024-03-23T07:06:55;20.73;;;2.00;;
15968;SDS011;8085;53.472;9.794;2024-03-23T07:09:22;16.08;;;2.17;;
15968;SDS011;8085;53.472;9.794;2024-03-23T07:11:51;13.68;;;2.15;;
15968;SDS011;8085;53.472;9.794;2024-03-23T07:14:20;14.40;;;2.55;;
15968;SDS011;8085;53.472;9.794;2024-03-23T07:16:46;13.48;;;2.33;;
15968;SDS011;8085;53.472;9.794;2024-03-23T07:19:14;15.63;;;2.70;;
15968;SDS011;8085;53.472;9.794;2024-03-23T07:21:41;13.13;;;2.22;;
15968;SDS011;8085;53.472;9.794;2024-03-23T07:24:08;18.38;;;2.17;;
15968;SDS011;8085;53.472;9.794;2024-03-23T07:26:34;16.23;;;2.08;;
15968;SDS011;8085;53.472;9.794;2024-03-23T07:29:00;11.50;;;2.38;;
15968;SDS011;8085;53.472;9.794;2024-03-23T07:31:28;13.68;;;2.50;;
15968;SDS011;8085;53.472;9.794;2024-03-23T07:33:55;10.02;;;1.90;;
15968;SDS011;8085;53.472;9.794;2024-03-23T07:36:20;16.70;;;2.28;;
15968;SDS011;8085;53.472;9.794;2024-03-23T07:38:47;15.38;;;2.35;;
15968;SDS011;8085;53.472;9.794;2024-03-23T07:41:15;20.17;;;2.90;;
15968;SDS011;8085;53.472;9.794;2024-03-23T07:43:43;16.75;;;2.40;;
15968;SDS011;8085;53.472;9.794;2024-03-23T07:46:09;18.27;;;3.00;;
15968;SDS011;8085;53.472;9.794;2024-03-23T07:48:38;10.10;;;2.35;;
15968;SDS011;8085;53.472;9.794;2024-03-23T07:51:06;13.98;;;2.40;;
15968;SDS011;8085;53.472;9.794;2024-03-23T07:53:33;17.95;;;2.60;;
15968;SDS011;8085;53.472;9.794;2024-03-23T07:56:00;13.80;;;2.20;;
15968;SDS011;8085;53.472;9.794;2024-03-23T07:58:29;10.85;;;1.70;;
15968;SDS011;8085;53.472;9.794;2024-03-23T08:00:55;11.13;;;1.85;;
15968;SDS011;8085;53.472;9.794;2024-03-23T08:03:22;18.38;;;2.65;;
15968;SDS011;8085;53.472;9.794;2024-03-23T08:05:49;14.10;;;2.13;;
15968;SDS011;8085;53.472;9.794;2024-03-23T08:08:16;14.55;;;2.40;;
15968;SDS011;8085;53.472;9.794;2024-03-23T08:10:48;13.63;;;1.75;;
15968;SDS011;8085;53.472;9.794;2024-03-23T08:13:16;13.05;;;2.42;;
15968;SDS011;8085;53.472;9.794;2024-03-23T08:15:42;18.88;;;2.25;;
15968;SDS011;8085;53.472;9.794;2024-03-23T08:18:10;17.35;;;1.90;;
15968;SDS011;8085;53.472;9.794;2024-03-23T08:20:37;16.33;;;2.47;;
15968;SDS011;8085;53.472;9.794;2024-03-23T08:23:06;13.02;;;2.10;;
15968;SDS011;8085;53.472;9.794;2024-03-23T08:25:31;8.18;;;1.52;;
15968;SDS011;8085;53.472;9.794;2024-03-23T08:27:58;14.85;;;2.35;;
15968;SDS011;8085;53.472;9.794;2024-03-23T08:30:24;11.98;;;2.05;;
15968;SDS011;8085;53.472;9.794;2024-03-23T08:32:51;11.35;;;1.75;;
15968;SDS011;8085;53.472;9.794;2024-03-23T08:35:17;12.95;;;2.05;;
15968;SDS011;8085;53.472;9.794;2024-03-23T08:37:44;10.45;;;1.60;;
15968;SDS011;8085;53.472;9.794;2024-03-23T08:40:11;10.50;;;2.30;;
15968;SDS011;8085;53.472;9.794;2024-03-23T08:42:38;13.05;;;2.00;;
15968;SDS011;8085;53.472;9.794;2024-03-23T08:45:04;14.50;;;2.25;;
15968;SDS011;8085;53.472;9.794;2024-03-23T08:47:34;12.45;;;1.88;;
15968;SDS011;8085;53.472;9.794;2024-03-23T08:50:01;13.25;;;1.45;;
15968;SDS011;8085;53.472;9.794;2024-03-23T08:52:27;18.75;;;2.08;;
15968;SDS011;8085;53.472;9.794;2024-03-23T08:54:54;12.60;;;1.80;;
15968;SDS011;8085;53.472;9.794;2024-03-23T08:57:23;10.98;;;1.95;;
15968;SDS011;8085;53.472;9.794;2024-03-23T08:59:49;11.85;;;1.75;;
15968;SDS011;8085;53.472;9.794;2024-03-23T09:02:16;15.85;;;1.90;;
15968;SDS011;8085;53.472;9.794;2024-03-23T09:04:45;11.48;;;2.05;;
15968;SDS011;8085;53.472;9.794;2024-03-23T09:07:11;9.52;;;1.60;;
15968;SDS011;8085;53.472;9.794;2024-03-23T09:09:38;13.35;;;1.73;;
15968;SDS011;8085;53.472;9.794;2024-03-23T09:12:05;11.93;;;1.80;;
15968;SDS011;8085;53.472;9.794;2024-03-23T09:14:32;10.15;;;1.73;;
15968;SDS011;8085;53.472;9.794;2024-03-23T09:16:59;12.15;;;1.70;;
15968;SDS011;8085;53.472;9.794;2024-03-23T09:19:26;8.90;;;1.67;;
15968;SDS011;8085;53.472;9.794;2024-03-23T09:21:54;6.97;;;1.20;;
15968;SDS011;8085;53.472;9.794;2024-03-23T09:24:20;9.95;;;1.92;;
15968;SDS011;8085;53.472;9.794;2024-03-23T09:26:47;10.95;;;1.35;;
15968;SDS011;8085;53.472;9.794;2024-03-23T09:29:12;12.13;;;1.40;;
15968;SDS011;8085;53.472;9.794;2024-03-23T09:31:40;9.90;;;1.52;;
15968;SDS011;8085;53.472;9.794;2024-03-23T09:34:06;9.57;;;1.52;;
15968;SDS011;8085;53.472;9.794;2024-03-23T09:36:33;12.27;;;1.80;;
15968;SDS011;8085;53.472;9.794;2024-03-23T09:38:59;7.60;;;1.33;;
15968;SDS011;8085;53.472;9.794;2024-03-23T09:41:25;10.07;;;1.23;;
15968;SDS011;8085;53.472;9.794;2024-03-23T09:43:52;8.45;;;1.70;;
15968;SDS011;8085;53.472;9.794;2024-03-23T09:46:19;13.38;;;2.05;;
15968;SDS011;8085;53.472;9.794;2024-03-23T09:48:47;8.65;;;1.67;;
15968;SDS011;8085;53.472;9.794;2024-03-23T09:51:13;6.50;;;1.40;;
15968;SDS011;8085;53.472;9.794;2024-03-23T09:53:39;12.68;;;1.50;;
15968;SDS011;8085;53.472;9.794;2024-03-23T09:56:07;6.55;;;1.42;;
15968;SDS011;8085;53.472;9.794;2024-03-23T09:58:34;10.00;;;1.00;;
15968;SDS011;8085;53.472;9.794;2024-03-23T10:01:01;7.28;;;1.10;;
15968;SDS011;8085;53.472;9.794;2024-03-23T10:03:28;12.38;;;1.25;;
15968;SDS011;8085;53.472;9.794;2024-03-23T10:06:01;8.10;;;1.38;;
15968;SDS011;8085;53.472;9.794;2024-03-23T10:08:28;10.75;;;1.65;;
15968;SDS011;8085;53.472;9.794;2024-03-23T10:10:56;8.70;;;1.30;;
15968;SDS011;8085;53.472;9.794;2024-03-23T10:13:25;8.43;;;1.00;;
15968;SDS011;8085;53.472;9.794;2024-03-23T10:20:50;4.47;;;1.08;;
15968;SDS011;8085;53.472;9.794;2024-03-23T10:23:19;8.40;;;0.85;;
15968;SDS011;8085;53.472;9.794;2024-03-23T10:25:45;6.03;;;0.98;;
15968;SDS011;8085;53.472;9.794;2024-03-23T10:28:11;7.28;;;0.90;;
15968;SDS011;8085;53.472;9.794;2024-03-23T10:30:38;6.63;;;1.70;;
15968;SDS011;8085;53.472;9.794;2024-03-23T10:33:07;8.40;;;1.10;;
15968;SDS011;8085;53.472;9.794;2024-03-23T10:35:34;7.53;;;1.20;;
15968;SDS011;8085;53.472;9.794;2024-03-23T10:38:02;9.10;;;1.05;;
15968;SDS011;8085;53.472;9.794;2024-03-23T10:40:32;5.72;;;1.25;;
15968;SDS011;8085;53.472;9.794;2024-03-23T10:42:59;6.72;;;1.00;;
15968;SDS011;8085;53.472;9.794;2024-03-23T10:45:27;3.50;;;0.60;;
15968;SDS011;8085;53.472;9.794;2024-03-23T10:47:53;4.88;;;0.70;;
15968;SDS011;8085;53.472;9.794;2024-03-23T10:50:21;9.32;;;1.00;;
15968;SDS011;8085;53.472;9.794;2024-03-23T10:52:47;4.07;;;0.93;;
15968;SDS011;8085;53.472;9.794;2024-03-23T10:55:15;4.72;;;1.15;;
15968;SDS011;8085;53.472;9.794;2024-03-23T10:57:45;6.45;;;1.02;;
15968;SDS011;8085;53.472;9.794;2024-03-23T11:00:17;5.78;;;1.25;;
15968;SDS011;8085;53.472;9.794;2024-03-23T11:02:43;3.20;;;1.17;;
15968;SDS011;8085;53.472;9.794;2024-03-23T11:07:57;10.85;;;0.93;;
15968;SDS011;8085;53.472;9.794;2024-03-23T11:10:25;7.60;;;0.98;;
15968;SDS011;8085;53.472;9.794;2024-03-23T11:12:54;9.48;;;0.80;;
15968;SDS011;8085;53.472;9.794;2024-03-23T11:15:21;7.93;;;1.00;;
15968;SDS011;8085;53.472;9.794;2024-03-23T11:18:02;6.22;;;0.85;;
15968;SDS011;8085;53.472;9.794;2024-03-23T11:20:31;6.20;;;0.70;;
15968;SDS011;8085;53.472;9.794;2024-03-23T11:22:58;5.82;;;1.00;;
15968;SDS011;8085;53.472;9.794;2024-03-23T11:25:26;7.85;;;0.90;;
15968;SDS011;8085;53.472;9.794;2024-03-23T11:27:53;6.32;;;0.90;;
15968;SDS011;8085;53.472;9.794;2024-03-23T11:30:23;5.65;;;0.77;;
15968;SDS011;8085;53.472;9.794;2024-03-23T11:32:50;3.15;;;0.98;;
15968;SDS011;8085;53.472;9.794;2024-03-23T11:35:25;4.72;;;1.05;;
15968;SDS011;8085;53.472;9.794;2024-03-23T11:38:04;6.07;;;0.85;;
15968;SDS011;8085;53.472;9.794;2024-03-23T11:40:32;4.35;;;0.80;;
15968;SDS011;8085;53.472;9.794;2024-03-23T11:43:00;5.53;;;0.88;;
15968;SDS011;8085;53.472;9.794;2024-03-23T11:45:28;8.13;;;1.25;;
15968;SDS011;8085;53.472;9.794;2024-03-23T11:48:02;4.70;;;0.90;;
15968;SDS011;8085;53.472;9.794;2024-03-23T11:50:33;4.97;;;1.05;;
15968;SDS011;8085;53.472;9.794;2024-03-23T11:53:06;4.78;;;0.82;;
15968;SDS011;8085;53.472;9.794;2024-03-23T11:55:44;4.22;;;0.80;;
15968;SDS011;8085;53.472;9.794;2024-03-23T11:58:13;8.32;;;1.15;;
15968;SDS011;8085;53.472;9.794;2024-03-23T12:00:40;6.80;;;1.20;;
15968;SDS011;8085;53.472;9.794;2024-03-23T12:03:06;6.63;;;1.25;;
15968;SDS011;8085;53.472;9.794;2024-03-23T12:05:35;5.53;;;1.08;;
15968;SDS011;8085;53.472;9.794;2024-03-23T12:08:17;8.35;;;1.13;;
15968;SDS011;8085;53.472;9.794;2024-03-23T12:10:47;3.72;;;0.75;;
15968;SDS011;8085;53.472;9.794;2024-03-23T12:13:19;3.08;;;0.75;;
15968;SDS011;8085;53.472;9.794;2024-03-23T12:15:46;2.80;;;0.95;;
15968;SDS011;8085;53.472;9.794;2024-03-23T12:18:13;4.00;;;0.90;;
15968;SDS011;8085;53.472;9.794;2024-03-23T12:20:40;3.28;;;0.68;;
15968;SDS011;8085;53.472;9.794;2024-03-23T12:23:06;5.72;;;0.73;;
15968;SDS011;8085;53.472;9.794;2024-03-23T12:25:34;3.80;;;0.88;;
15968;SDS011;8085;53.472;9.794;2024-03-23T12:28:00;3.25;;;0.70;;
15968;SDS011;8085;53.472;9.794;2024-03-23T12:30:29;2.55;;;1.00;;
15968;SDS011;8085;53.472;9.794;2024-03-23T12:32:55;1.23;;;0.50;;
15968;SDS011;8085;53.472;9.794;2024-03-23T12:35:21;5.15;;;0.60;;
15968;SDS011;8085;53.472;9.794;2024-03-23T12:37:47;3.33;;;0.30;;
15968;SDS011;8085;53.472;9.794;2024-03-23T12:40:14;1.02;;;0.43;;
15968;SDS011;8085;53.472;9.794;2024-03-23T12:42:40;4.18;;;0.45;;
15968;SDS011;8085;53.472;9.794;2024-03-23T12:45:07;2.95;;;0.40;;
15968;SDS011;8085;53.472;9.794;2024-03-23T12:47:35;3.55;;;0.52;;
15968;SDS011;8085;53.472;9.794;2024-03-23T12:50:02;1.63;;;0.43;;
15968;SDS011;8085;53.472;9.794;2024-03-23T12:52:28;3.42;;;0.63;;
15968;SDS011;8085;53.472;9.794;2024-03-23T12:54:55;3.03;;;0.50;;
15968;SDS011;8085;53.472;9.794;2024-03-23T12:57:21;6.60;;;0.80;;
15968;SDS011;8085;53.472;9.794;2024-03-23T12:59:49;2.00;;;0.52;;
15968;SDS011;8085;53.472;9.794;2024-03-23T13:02:16;3.95;;;0.80;;
15968;SDS011;8085;53.472;9.794;2024-03-23T13:04:46;1.50;;;0.50;;
15968;SDS011;8085;53.472;9.794;2024-03-23T13:09:41;4.05;;;0.70;;
15968;SDS011;8085;53.472;9.794;2024-03-23T13:12:08;5.68;;;1.23;;
15968;SDS011;8085;53.472;9.794;2024-03-23T13:14:34;2.08;;;0.70;;
15968;SDS011;8085;53.472;9.794;2024-03-23T13:17:01;4.65;;;0.90;;
15968;SDS011;8085;53.472;9.794;2024-03-23T13:19:27;4.50;;;1.15;;
15968;SDS011;8085;53.472;9.794;2024-03-23T13:21:57;1.30;;;0.55;;
15968;SDS011;8085;53.472;9.794;2024-03-23T13:24:23;2.65;;;0.60;;
15968;SDS011;8085;53.472;9.794;2024-03-23T13:26:50;3.38;;;0.73;;
15968;SDS011;8085;53.472;9.794;2024-03-23T13:29:17;2.95;;;0.47;;
15968;SDS011;8085;53.472;9.794;2024-03-23T13:31:44;3.08;;;0.40;;
15968;SDS011;8085;53.472;9.794;2024-03-23T13:34:10;1.67;;;0.30;;
15968;SDS011;8085;53.472;9.794;2024-03-23T13:36:38;3.00;;;0.50;;
15968;SDS011;8085;53.472;9.794;2024-03-23T13:39:05;1.17;;;0.40;;
15968;SDS011;8085;53.472;9.794;2024-03-23T13:41:36;1.90;;;0.30;;
15968;SDS011;8085;53.472;9.794;2024-03-23T13:44:03;2.63;;;0.30;;
15968;SDS011;8085;53.472;9.794;2024-03-23T13:46:30;1.77;;;0.30;;
15968;SDS011;8085;53.472;9.794;2024-03-23T13:48:55;3.58;;;0.30;;
15968;SDS011;8085;53.472;9.794;2024-03-23T13:51:23;2.13;;;0.52;;
15968;SDS011;8085;53.472;9.794;2024-03-23T13:53:52;3.55;;;0.30;;
15968;SDS011;8085;53.472;9.794;2024-03-23T13:56:22;1.65;;;0.32;;
15968;SDS011;8085;53.472;9.794;2024-03-23T13:58:48;0.90;;;0.20;;
15968;SDS011;8085;53.472;9.794;2024-03-23T14:01:15;4.63;;;0.30;;
15968;SDS011;8085;53.472;9.794;2024-03-23T14:03:42;3.15;;;0.47;;
15968;SDS011;8085;53.472;9.794;2024-03-23T14:06:10;0.82;;;0.25;;
15968;SDS011;8085;53.472;9.794;2024-03-23T14:08:36;1.80;;;0.40;;
15968;SDS011;8085;53.472;9.794;2024-03-23T14:11:05;2.05;;;0.45;;
15968;SDS011;8085;53.472;9.794;2024-03-23T14:13:32;0.73;;;0.30;;
15968;SDS011;8085;53.472;9.794;2024-03-23T14:15:59;6.15;;;0.70;;
15968;SDS011;8085;53.472;9.794;2024-03-23T14:18:25;3.05;;;0.50;;
15968;SDS011;8085;53.472;9.794;2024-03-23T14:20:52;1.58;;;0.32;;
15968;SDS011;8085;53.472;9.794;2024-03-23T14:23:23;3.50;;;0.60;;
15968;SDS011;8085;53.472;9.794;2024-03-23T14:25:52;2.08;;;0.45;;
15968;SDS011;8085;53.472;9.794;2024-03-23T14:28:18;3.45;;;0.30;;
15968;SDS011;8085;53.472;9.794;2024-03-23T14:30:46;3.55;;;0.40;;
15968;SDS011;8085;53.472;9.794;2024-03-23T14:33:12;4.10;;;0.45;;
15968;SDS011;8085;53.472;9.794;2024-03-23T14:35:39;5.03;;;0.73;;
15968;SDS011;8085;53.472;9.794;2024-03-23T14:38:05;2.35;;;0.47;;
15968;SDS011;8085;53.472;9.794;2024-03-23T14:40:31;6.60;;;1.65;;
15968;SDS011;8085;53.472;9.794;2024-03-23T14:42:57;1.77;;;0.50;;
15968;SDS011;8085;53.472;9.794;2024-03-23T14:45:24;3.53;;;0.40;;
15968;SDS011;8085;53.472;9.794;2024-03-23T14:47:51;3.22;;;0.40;;
15968;SDS011;8085;53.472;9.794;2024-03-23T14:50:18;5.43;;;0.70;;
15968;SDS011;8085;53.472;9.794;2024-03-23T14:52:44;5.47;;;0.68;;
15968;SDS011;8085;53.472;9.794;2024-03-23T14:55:11;2.80;;;0.50;;
15968;SDS011;8085;53.472;9.794;2024-03-23T14:57:37;5.00;;;0.90;;
15968;SDS011;8085;53.472;9.794;2024-03-23T15:00:05;4.72;;;0.55;;
15968;SDS011;8085;53.472;9.794;2024-03-23T15:02:33;4.43;;;0.55;;
15968;SDS011;8085;53.472;9.794;2024-03-23T15:05:02;1.55;;;0.20;;
15968;SDS011;8085;53.472;9.794;2024-03-23T15:07:29;3.38;;;0.57;;
15968;SDS011;8085;53.472;9.794;2024-03-23T15:09:56;1.05;;;0.20;;
15968;SDS011;8085;53.472;9.794;2024-03-23T15:12:22;0.55;;;0.15;;
15968;SDS011;8085;53.472;9.794;2024-03-23T15:14:49;3.08;;;0.30;;
15968;SDS011;8085;53.472;9.794;2024-03-23T15:17:16;0.98;;;0.20;;
15968;SDS011;8085;53.472;9.794;2024-03-23T15:19:43;0.63;;;0.20;;
15968;SDS011;8085;53.472;9.794;2024-03-23T15:22:10;2.10;;;0.20;;
15968;SDS011;8085;53.472;9.794;2024-03-23T15:24:38;1.20;;;0.30;;
15968;SDS011;8085;53.472;9.794;2024-03-23T15:27:03;3.28;;;0.50;;
15968;SDS011;8085;53.472;9.794;2024-03-23T15:29:33;1.05;;;0.32;;
15968;SDS011;8085;53.472;9.794;2024-03-23T15:31:59;1.92;;;0.57;;
15968;SDS011;8085;53.472;9.794;2024-03-23T15:34:26;3.50;;;0.73;;
15968;SDS011;8085;53.472;9.794;2024-03-23T15:36:53;2.30;;;0.57;;
15968;SDS011;8085;53.472;9.794;2024-03-23T15:39:22;1.92;;;0.60;;
15968;SDS011;8085;53.472;9.794;2024-03-23T15:41:47;4.93;;;0.68;;
15968;SDS011;8085;53.472;9.794;2024-03-23T15:44:14;2.55;;;0.70;;
15968;SDS011;8085;53.472;9.794;2024-03-23T15:46:40;2.13;;;0.65;;
15968;SDS011;8085;53.472;9.794;2024-03-23T15:49:07;5.38;;;0.90;;
15968;SDS011;8085;53.472;9.794;2024-03-23T15:51:33;7.07;;;0.60;;
15968;SDS011;8085;53.472;9.794;2024-03-23T15:54:02;3.38;;;0.60;;
15968;SDS011;8085;53.472;9.794;2024-03-23T15:56:29;2.42;;;0.60;;
15968;SDS011;8085;53.472;9.794;2024-03-23T15:58:56;3.38;;;0.40;;